Time;durP1;ratioP1;P1;durP2;ratioP2;P2;SDS_P1;SDS_P2;PMS_P1;PMS_P2;Temp;Humidity;BMP_temperature;BMP_pressure;BME280_temperature;BME280_humidity;BME280_pressure;Samples;Min_cycle;Max_cycle;Signal;HPM_P1;HPM_P2
2022/10/07 00:02:01;;;;;;;10.98;2.45;;;;;;;;;;2440588;57;21200;-83
2022/10/07 00:04:28;;;;;;;9.13;2.70;;;;;;;;;;2221167;61;21159;-83
2022/10/07 00:06:55;;;;;;;8.15;2.67;;;;;;;;;;2221071;61;21140;-83
2022/10/07 00:09:23;;;;;;;6.15;1.92;;;;;;;;;;2220915;61;21151;-83
2022/10/07 00:11:50;;;;;;;6.57;2.45;;;;;;;;;;2440638;57;21143;-83
2022/10/07 00:14:17;;;;;;;5.90;2.08;;;;;;;;;;2441026;57;21714;-83
2022/10/07 00:16:44;;;;;;;4.43;1.98;;;;;;;;;;2440654;57;21099;-83
2022/10/07 00:19:12;;;;;;;7.37;1.77;;;;;;;;;;2440805;57;21635;-83
2022/10/07 00:21:39;;;;;;;5.57;2.00;;;;;;;;;;2221142;61;21580;-83
2022/10/07 00:24:07;;;;;;;8.43;2.10;;;;;;;;;;2221152;61;21083;-83
2022/10/07 00:26:36;;;;;;;7.93;2.30;;;;;;;;;;2221323;61;21156;-83
2022/10/07 00:29:03;;;;;;;6.53;2.25;;;;;;;;;;2220984;61;21151;-83
2022/10/07 00:31:31;;;;;;;6.85;2.08;;;;;;;;;;2220695;61;21155;-83
2022/10/07 00:33:58;;;;;;;8.45;2.60;;;;;;;;;;2440605;57;21067;-83
2022/10/07 00:36:26;;;;;;;8.70;2.10;;;;;;;;;;2440819;57;21091;-83
2022/10/07 00:38:54;;;;;;;6.95;2.03;;;;;;;;;;2220947;61;21168;-83
2022/10/07 00:41:23;;;;;;;4.82;2.10;;;;;;;;;;2221240;61;21148;-83
2022/10/07 00:43:50;;;;;;;7.50;2.58;;;;;;;;;;2220934;61;21099;-83
2022/10/07 00:46:23;;;;;;;8.10;1.85;;;;;;;;;;2221290;61;21072;-83
2022/10/07 00:48:50;;;;;;;13.40;2.80;;;;;;;;;;2440469;57;21184;-82
2022/10/07 00:51:17;;;;;;;9.48;2.10;;;;;;;;;;2221304;61;21140;-83
2022/10/07 00:53:46;;;;;;;4.45;1.85;;;;;;;;;;2220602;61;21191;-82
2022/10/07 00:56:15;;;;;;;9.45;2.42;;;;;;;;;;2219861;61;21083;-82
2022/10/07 00:58:43;;;;;;;10.15;3.22;;;;;;;;;;2221019;61;21115;-82
2022/10/07 01:01:10;;;;;;;2.95;1.58;;;;;;;;;;2221883;61;21096;-83
2022/10/07 01:03:38;;;;;;;7.90;2.47;;;;;;;;;;2441400;56;21088;-83
2022/10/07 01:06:06;;;;;;;5.47;1.90;;;;;;;;;;2440760;57;21088;-83
2022/10/07 01:08:33;;;;;;;7.65;2.53;;;;;;;;;;2440680;57;21560;-83
2022/10/07 01:11:12;;;;;;;7.85;2.40;;;;;;;;;;2440450;57;21112;-83
2022/10/07 01:13:43;;;;;;;8.85;2.70;;;;;;;;;;2221154;61;21092;-83
2022/10/07 01:16:13;;;;;;;7.90;2.17;;;;;;;;;;2221113;61;21128;-83
2022/10/07 01:18:42;;;;;;;4.65;2.50;;;;;;;;;;2441032;57;21699;-83
2022/10/07 01:21:12;;;;;;;7.00;2.70;;;;;;;;;;2220881;61;21095;-83
2022/10/07 01:23:50;;;;;;;14.13;3.00;;;;;;;;;;2220990;61;21127;-83
2022/10/07 01:26:28;;;;;;;9.93;3.53;;;;;;;;;;2440933;57;21071;-83
2022/10/07 01:28:56;;;;;;;13.70;3.67;;;;;;;;;;2221086;61;21091;-83
2022/10/07 01:31:27;;;;;;;8.13;2.62;;;;;;;;;;2440666;57;21139;-83
2022/10/07 01:33:54;;;;;;;7.25;3.03;;;;;;;;;;2221356;61;21679;-83
2022/10/07 01:36:23;;;;;;;8.50;2.85;;;;;;;;;;2440778;57;21096;-83
2022/10/07 01:38:52;;;;;;;7.93;2.42;;;;;;;;;;2440897;57;21090;-83
2022/10/07 01:41:20;;;;;;;6.85;2.92;;;;;;;;;;2440395;57;21655;-83
2022/10/07 01:43:47;;;;;;;6.72;3.35;;;;;;;;;;2221312;61;21092;-83
2022/10/07 01:46:17;;;;;;;7.68;2.42;;;;;;;;;;2440764;57;21091;-83
2022/10/07 01:48:45;;;;;;;6.78;2.42;;;;;;;;;;2221101;61;21088;-83
2022/10/07 01:51:12;;;;;;;8.38;2.92;;;;;;;;;;2440580;57;21167;-83
2022/10/07 01:53:49;;;;;;;11.75;3.00;;;;;;;;;;2221236;61;21168;-83
2022/10/07 01:56:24;;;;;;;9.50;3.30;;;;;;;;;;2440777;56;21148;-82
2022/10/07 01:58:59;;;;;;;10.02;2.30;;;;;;;;;;2440867;57;21647;-83
2022/10/07 02:01:32;;;;;;;4.85;2.35;;;;;;;;;;2221170;61;21083;-83
2022/10/07 02:04:17;;;;;;;10.80;2.85;;;;;;;;;;2221417;61;21103;-83
2022/10/07 02:06:49;;;;;;;9.25;2.95;;;;;;;;;;2440821;57;21079;-83
2022/10/07 02:09:20;;;;;;;6.87;2.62;;;;;;;;;;2441217;57;21167;-83
2022/10/07 02:11:49;;;;;;;5.57;2.92;;;;;;;;;;2220894;61;21100;-84
2022/10/07 02:14:18;;;;;;;7.97;3.15;;;;;;;;;;2221116;61;21076;-83
2022/10/07 02:16:47;;;;;;;5.87;2.62;;;;;;;;;;2440895;57;21083;-83
2022/10/07 02:19:16;;;;;;;10.02;3.03;;;;;;;;;;2441294;57;21167;-83
2022/10/07 02:21:45;;;;;;;7.10;3.05;;;;;;;;;;2221096;61;21112;-83
2022/10/07 02:24:14;;;;;;;8.75;2.62;;;;;;;;;;2441118;57;21088;-83
2022/10/07 02:26:42;;;;;;;6.28;2.78;;;;;;;;;;2441011;57;21104;-83
2022/10/07 02:29:10;;;;;;;7.22;2.60;;;;;;;;;;2221193;61;21087;-83
2022/10/07 02:31:40;;;;;;;5.47;2.83;;;;;;;;;;2440772;56;21100;-83
2022/10/07 02:34:09;;;;;;;7.72;2.95;;;;;;;;;;2221281;61;21135;-83
2022/10/07 02:36:38;;;;;;;5.95;2.80;;;;;;;;;;2221139;61;21100;-83
2022/10/07 02:39:05;;;;;;;8.55;2.70;;;;;;;;;;2221472;61;21131;-83
2022/10/07 02:41:35;;;;;;;11.60;3.00;;;;;;;;;;2221099;61;21083;-83
2022/10/07 02:44:08;;;;;;;9.50;3.33;;;;;;;;;;2440993;57;21095;-83
2022/10/07 02:46:38;;;;;;;6.35;2.80;;;;;;;;;;2221434;61;21108;-83
2022/10/07 02:49:07;;;;;;;10.48;3.17;;;;;;;;;;2220971;61;21750;-84
2022/10/07 02:51:37;;;;;;;8.00;3.28;;;;;;;;;;2221169;61;21156;-83
2022/10/07 02:54:04;;;;;;;9.43;3.22;;;;;;;;;;2221307;61;21144;-83
2022/10/07 02:56:33;;;;;;;7.65;3.00;;;;;;;;;;2221234;61;21167;-83
2022/10/07 02:59:00;;;;;;;9.65;3.00;;;;;;;;;;2220875;61;21087;-83
2022/10/07 03:01:30;;;;;;;8.27;3.15;;;;;;;;;;2221102;61;21131;-83
2022/10/07 03:03:57;;;;;;;11.30;3.87;;;;;;;;;;2440770;57;21126;-84
2022/10/07 03:06:28;;;;;;;10.02;2.80;;;;;;;;;;2440812;57;21087;-83
2022/10/07 03:08:56;;;;;;;7.18;2.90;;;;;;;;;;2221071;61;21080;-83
2022/10/07 03:11:23;;;;;;;10.45;3.08;;;;;;;;;;2440658;57;21095;-84
2022/10/07 03:13:50;;;;;;;9.23;3.95;;;;;;;;;;2440986;57;21119;-84
2022/10/07 03:16:17;;;;;;;6.78;3.05;;;;;;;;;;2220994;61;21151;-84
2022/10/07 03:18:45;;;;;;;10.75;3.10;;;;;;;;;;2221265;61;21596;-83
2022/10/07 03:21:12;;;;;;;8.20;3.00;;;;;;;;;;2221375;61;21095;-83
2022/10/07 03:23:39;;;;;;;4.75;2.95;;;;;;;;;;2440868;57;21076;-83
2022/10/07 03:26:06;;;;;;;7.78;3.72;;;;;;;;;;2221236;61;21108;-83
2022/10/07 03:28:36;;;;;;;9.27;3.80;;;;;;;;;;2221286;61;21746;-83
2022/10/07 03:31:06;;;;;;;8.50;3.53;;;;;;;;;;2440973;57;21223;-83
2022/10/07 03:33:34;;;;;;;7.62;3.45;;;;;;;;;;2440940;57;21132;-83
2022/10/07 03:36:01;;;;;;;5.78;3.03;;;;;;;;;;2440823;57;21111;-83
2022/10/07 03:38:28;;;;;;;12.57;3.05;;;;;;;;;;2221379;61;21091;-83
2022/10/07 03:40:55;;;;;;;8.52;2.97;;;;;;;;;;2220661;61;21115;-83
2022/10/07 03:43:23;;;;;;;7.28;3.30;;;;;;;;;;2440096;57;21179;-84
2022/10/07 03:45:51;;;;;;;9.00;3.10;;;;;;;;;;2440904;57;21144;-83
2022/10/07 03:48:18;;;;;;;7.57;2.83;;;;;;;;;;2221036;61;21260;-83
2022/10/07 03:50:48;;;;;;;8.23;3.17;;;;;;;;;;2220959;61;21100;-83
2022/10/07 03:53:15;;;;;;;10.98;3.30;;;;;;;;;;2221299;61;21147;-84
2022/10/07 03:55:42;;;;;;;7.68;2.60;;;;;;;;;;2441025;57;21091;-83
2022/10/07 03:58:10;;;;;;;7.22;3.05;;;;;;;;;;2221338;61;21128;-84
2022/10/07 04:00:38;;;;;;;9.98;2.95;;;;;;;;;;2441392;57;21088;-83
2022/10/07 04:03:06;;;;;;;7.80;3.05;;;;;;;;;;2441146;57;21128;-83
2022/10/07 04:05:34;;;;;;;5.45;3.03;;;;;;;;;;2440994;57;21108;-83
2022/10/07 04:08:01;;;;;;;9.02;3.08;;;;;;;;;;2441042;57;21144;-83
2022/10/07 04:10:28;;;;;;;8.20;3.00;;;;;;;;;;2221213;61;21173;-83
2022/10/07 04:12:55;;;;;;;10.13;2.87;;;;;;;;;;2440818;57;21064;-83
2022/10/07 04:15:22;;;;;;;9.82;3.20;;;;;;;;;;2440902;57;21112;-83
2022/10/07 04:17:55;;;;;;;9.77;2.97;;;;;;;;;;2441115;57;21076;-83
2022/10/07 04:20:21;;;;;;;10.45;3.58;;;;;;;;;;2440958;57;21147;-83
2022/10/07 04:22:48;;;;;;;11.00;3.12;;;;;;;;;;2221033;61;21191;-83
2022/10/07 04:25:34;;;;;;;8.15;3.30;;;;;;;;;;2440570;57;21660;-83
2022/10/07 04:28:02;;;;;;;17.00;3.87;;;;;;;;;;2221361;61;21164;-84
2022/10/07 04:30:32;;;;;;;8.55;3.25;;;;;;;;;;2221174;61;21096;-84
2022/10/07 04:33:00;;;;;;;7.43;2.40;;;;;;;;;;2440886;57;21103;-84
2022/10/07 04:35:27;;;;;;;11.27;2.70;;;;;;;;;;2221196;61;21103;-84
2022/10/07 04:37:54;;;;;;;12.02;3.20;;;;;;;;;;2440926;57;21155;-84
2022/10/07 04:40:21;;;;;;;4.78;3.15;;;;;;;;;;2221159;61;21167;-84
2022/10/07 04:45:34;;;;;;;4.32;2.60;;;;;;;;;;2221451;61;21032;-84
2022/10/07 04:48:01;;;;;;;8.18;2.87;;;;;;;;;;2221291;61;21088;-83
2022/10/07 04:50:28;;;;;;;9.63;3.42;;;;;;;;;;2221333;61;21151;-83
2022/10/07 04:52:56;;;;;;;11.12;3.50;;;;;;;;;;2440954;57;21088;-83
2022/10/07 04:55:23;;;;;;;8.80;2.90;;;;;;;;;;2440949;57;21099;-83
2022/10/07 04:57:50;;;;;;;8.93;3.00;;;;;;;;;;2221134;61;21072;-82
2022/10/07 05:00:17;;;;;;;10.55;3.00;;;;;;;;;;2441127;57;21088;-83
2022/10/07 05:02:49;;;;;;;8.70;3.15;;;;;;;;;;2221102;61;21163;-83
2022/10/07 05:05:16;;;;;;;11.90;2.78;;;;;;;;;;2440834;57;21189;-83
2022/10/07 05:07:43;;;;;;;10.13;3.12;;;;;;;;;;2441188;57;21088;-83
2022/10/07 05:10:10;;;;;;;11.77;2.72;;;;;;;;;;2440923;57;21052;-83
2022/10/07 05:12:40;;;;;;;11.77;3.12;;;;;;;;;;2220911;61;21127;-82
2022/10/07 05:15:07;;;;;;;8.60;3.08;;;;;;;;;;2221248;61;21095;-83
2022/10/07 05:17:34;;;;;;;7.15;3.05;;;;;;;;;;2441105;57;21159;-83
2022/10/07 05:20:01;;;;;;;9.25;3.25;;;;;;;;;;2440911;57;21140;-83
2022/10/07 05:22:29;;;;;;;9.57;3.03;;;;;;;;;;2440665;57;21123;-84
2022/10/07 05:24:56;;;;;;;6.25;2.95;;;;;;;;;;2440683;57;21075;-82
2022/10/07 05:27:22;;;;;;;8.40;3.42;;;;;;;;;;2221073;61;21147;-82
2022/10/07 05:29:49;;;;;;;8.65;3.03;;;;;;;;;;2221521;61;21131;-83
2022/10/07 05:32:17;;;;;;;7.47;3.00;;;;;;;;;;2221098;61;21155;-83
2022/10/07 05:34:44;;;;;;;9.93;3.35;;;;;;;;;;2440753;57;21088;-83
2022/10/07 05:37:11;;;;;;;15.35;3.20;;;;;;;;;;2440730;57;21092;-83
2022/10/07 05:39:38;;;;;;;8.32;2.87;;;;;;;;;;2440997;57;21095;-83
2022/10/07 05:42:05;;;;;;;5.45;2.40;;;;;;;;;;2440768;57;21647;-83
2022/10/07 05:44:32;;;;;;;16.70;2.90;;;;;;;;;;2440910;57;21132;-84
2022/10/07 05:46:59;;;;;;;10.70;3.25;;;;;;;;;;2441088;57;21116;-84
2022/10/07 05:49:26;;;;;;;7.95;2.90;;;;;;;;;;2441249;57;21144;-84
2022/10/07 05:51:53;;;;;;;5.12;2.60;;;;;;;;;;2220971;61;21104;-84
2022/10/07 05:54:21;;;;;;;8.88;2.72;;;;;;;;;;2441127;57;21105;-83
2022/10/07 05:56:48;;;;;;;6.47;2.85;;;;;;;;;;2440791;56;21100;-83
2022/10/07 05:59:15;;;;;;;6.75;2.62;;;;;;;;;;2221075;61;21640;-83
2022/10/07 06:01:42;;;;;;;5.53;2.60;;;;;;;;;;2221045;61;21088;-83
2022/10/07 06:04:11;;;;;;;12.35;3.22;;;;;;;;;;2221262;61;21124;-83
2022/10/07 06:06:38;;;;;;;6.28;2.72;;;;;;;;;;2220980;61;21084;-83
2022/10/07 06:14:43;;;;;;;7.12;2.87;;;;;;;;;;2221146;61;21539;-83
2022/10/07 06:17:10;;;;;;;8.85;3.05;;;;;;;;;;2221108;61;21167;-83
2022/10/07 06:19:37;;;;;;;11.35;2.80;;;;;;;;;;2440914;57;21128;-83
2022/10/07 06:22:04;;;;;;;10.88;3.03;;;;;;;;;;2221053;61;21571;-83
2022/10/07 06:24:32;;;;;;;7.75;2.70;;;;;;;;;;2440748;57;21091;-83
2022/10/07 06:26:59;;;;;;;8.00;2.78;;;;;;;;;;2439968;57;21127;-82
2022/10/07 06:29:27;;;;;;;9.50;2.95;;;;;;;;;;2220446;61;21591;-83
2022/10/07 06:31:54;;;;;;;7.00;2.83;;;;;;;;;;2440150;57;21116;-83
2022/10/07 06:34:21;;;;;;;11.70;3.28;;;;;;;;;;2440948;57;21156;-83
2022/10/07 06:36:48;;;;;;;14.63;3.50;;;;;;;;;;2440647;57;21154;-83
2022/10/07 06:39:17;;;;;;;7.90;2.85;;;;;;;;;;2221089;61;21092;-83
2022/10/07 06:41:44;;;;;;;8.05;2.90;;;;;;;;;;2220891;61;21092;-85
2022/10/07 06:44:10;;;;;;;6.28;2.60;;;;;;;;;;2220738;61;21116;-85
2022/10/07 06:46:37;;;;;;;7.15;2.70;;;;;;;;;;2440893;57;21147;-85
2022/10/07 06:49:04;;;;;;;10.85;3.40;;;;;;;;;;2441034;57;21080;-83
2022/10/07 06:51:31;;;;;;;9.98;2.92;;;;;;;;;;2221292;61;21107;-83
2022/10/07 06:53:58;;;;;;;10.15;3.58;;;;;;;;;;2221430;61;21068;-83
2022/10/07 06:56:25;;;;;;;7.85;2.78;;;;;;;;;;2221230;61;21112;-83
2022/10/07 06:58:52;;;;;;;6.97;2.58;;;;;;;;;;2440837;57;21086;-83
2022/10/07 07:01:19;;;;;;;6.75;2.47;;;;;;;;;;2221247;61;21140;-83
2022/10/07 07:03:46;;;;;;;8.27;2.60;;;;;;;;;;2440716;57;21095;-83
2022/10/07 07:06:14;;;;;;;10.95;3.35;;;;;;;;;;2221582;61;21076;-83
2022/10/07 07:08:41;;;;;;;7.78;2.55;;;;;;;;;;2221344;61;21091;-83
2022/10/07 07:11:34;;;;;;;12.43;2.80;;;;;;;;;;2221010;61;21076;-83
2022/10/07 07:14:02;;;;;;;5.28;1.90;;;;;;;;;;2221331;61;21167;-83
2022/10/07 07:16:30;;;;;;;13.13;2.87;;;;;;;;;;2441098;57;21136;-83
2022/10/07 07:18:58;;;;;;;10.23;3.22;;;;;;;;;;2441122;57;21080;-83
2022/10/07 07:21:27;;;;;;;7.68;3.00;;;;;;;;;;2441044;57;21208;-83
2022/10/07 07:23:54;;;;;;;6.93;2.50;;;;;;;;;;2221398;61;21734;-84
2022/10/07 07:26:22;;;;;;;8.10;2.50;;;;;;;;;;2441252;57;21126;-83
2022/10/07 07:28:52;;;;;;;12.65;2.85;;;;;;;;;;2221087;61;21080;-83
2022/10/07 07:31:19;;;;;;;11.32;2.83;;;;;;;;;;2220985;61;21084;-83
2022/10/07 07:33:51;;;;;;;12.15;3.97;;;;;;;;;;2221226;61;21087;-83
2022/10/07 07:36:19;;;;;;;7.93;2.17;;;;;;;;;;2441128;57;21152;-84
2022/10/07 07:38:50;;;;;;;9.10;2.35;;;;;;;;;;2440942;57;21160;-83
2022/10/07 07:41:17;;;;;;;10.02;3.08;;;;;;;;;;2221260;61;21576;-83
2022/10/07 07:43:47;;;;;;;8.60;2.53;;;;;;;;;;2221122;61;21135;-83
2022/10/07 07:46:14;;;;;;;9.40;2.58;;;;;;;;;;2221180;61;21075;-83
2022/10/07 07:48:42;;;;;;;8.07;2.72;;;;;;;;;;2220873;61;21167;-83
2022/10/07 07:51:09;;;;;;;11.12;2.70;;;;;;;;;;2439737;57;21179;-83
2022/10/07 07:53:37;;;;;;;6.78;2.35;;;;;;;;;;2221300;61;21124;-84
2022/10/07 07:56:04;;;;;;;11.20;1.95;;;;;;;;;;2221317;61;21092;-83
2022/10/07 07:58:31;;;;;;;8.30;3.03;;;;;;;;;;2221168;61;21542;-84
2022/10/07 08:00:59;;;;;;;9.15;2.37;;;;;;;;;;2220783;61;21084;-83
2022/10/07 08:03:26;;;;;;;6.55;2.10;;;;;;;;;;2220374;61;21175;-83
2022/10/07 08:05:53;;;;;;;5.60;2.10;;;;;;;;;;2220791;61;21132;-83
2022/10/07 08:08:20;;;;;;;8.98;2.55;;;;;;;;;;2221335;61;21091;-84
2022/10/07 08:10:47;;;;;;;18.02;2.70;;;;;;;;;;2220633;61;21120;-83
2022/10/07 08:13:14;;;;;;;10.25;2.47;;;;;;;;;;2221244;61;21096;-83
2022/10/07 08:15:41;;;;;;;6.60;2.10;;;;;;;;;;2221071;61;21092;-83
2022/10/07 08:18:08;;;;;;;8.38;2.25;;;;;;;;;;2441237;57;21135;-83
2022/10/07 08:20:36;;;;;;;10.65;2.45;;;;;;;;;;2440888;57;21167;-82
2022/10/07 08:23:03;;;;;;;5.93;2.60;;;;;;;;;;2441157;57;21104;-83
2022/10/07 08:25:30;;;;;;;6.55;2.55;;;;;;;;;;2441131;57;21091;-83
2022/10/07 08:27:57;;;;;;;9.40;2.17;;;;;;;;;;2441185;57;21660;-83
2022/10/07 08:30:24;;;;;;;14.85;3.22;;;;;;;;;;2440847;57;21080;-83
2022/10/07 08:32:51;;;;;;;13.82;3.10;;;;;;;;;;2221012;61;21099;-83
2022/10/07 08:35:18;;;;;;;7.65;2.37;;;;;;;;;;2441084;57;21100;-83
2022/10/07 08:37:45;;;;;;;3.90;1.80;;;;;;;;;;2221296;61;21085;-83
2022/10/07 08:40:15;;;;;;;6.97;2.47;;;;;;;;;;2221204;61;21092;-84
2022/10/07 08:42:42;;;;;;;11.88;2.33;;;;;;;;;;2220981;61;22432;-83
2022/10/07 08:45:12;;;;;;;7.05;2.03;;;;;;;;;;2440859;57;21107;-83
2022/10/07 08:47:42;;;;;;;11.30;2.72;;;;;;;;;;2440975;57;21083;-83
2022/10/07 08:50:13;;;;;;;7.28;2.05;;;;;;;;;;2221366;61;21123;-83
2022/10/07 08:52:44;;;;;;;10.55;2.62;;;;;;;;;;2221106;61;21143;-83
2022/10/07 08:55:16;;;;;;;8.90;2.42;;;;;;;;;;2221085;61;21175;-83
2022/10/07 08:57:48;;;;;;;8.00;2.53;;;;;;;;;;2221191;61;21123;-83
2022/10/07 09:00:17;;;;;;;7.07;2.12;;;;;;;;;;2440973;57;21076;-83
2022/10/07 09:02:52;;;;;;;7.37;2.60;;;;;;;;;;2221347;61;21621;-83
2022/10/07 09:05:22;;;;;;;8.38;2.50;;;;;;;;;;2440804;57;21088;-83
2022/10/07 09:07:50;;;;;;;8.95;2.15;;;;;;;;;;2221141;61;21119;-83
2022/10/07 09:10:23;;;;;;;8.55;2.12;;;;;;;;;;2221011;61;21152;-83
2022/10/07 09:12:52;;;;;;;15.20;3.53;;;;;;;;;;2221435;61;21147;-84
2022/10/07 09:15:26;;;;;;;8.82;2.67;;;;;;;;;;2221325;61;21170;-83
2022/10/07 09:17:56;;;;;;;9.95;2.42;;;;;;;;;;2441283;57;21136;-84
2022/10/07 09:20:26;;;;;;;12.15;2.83;;;;;;;;;;2220778;61;21088;-84
2022/10/07 09:22:56;;;;;;;8.77;2.15;;;;;;;;;;2440971;57;21147;-84
2022/10/07 09:25:24;;;;;;;8.55;2.12;;;;;;;;;;2221157;61;21100;-83
2022/10/07 09:27:53;;;;;;;4.70;1.60;;;;;;;;;;2221347;61;21163;-83
2022/10/07 09:30:20;;;;;;;12.15;2.30;;;;;;;;;;2221259;61;21169;-84
2022/10/07 09:32:49;;;;;;;8.35;2.10;;;;;;;;;;2440646;57;21143;-83
2022/10/07 09:35:17;;;;;;;10.48;2.08;;;;;;;;;;2440861;57;21668;-84
2022/10/07 09:37:55;;;;;;;6.80;1.80;;;;;;;;;;2440762;57;21776;-84
2022/10/07 09:40:31;;;;;;;11.30;2.60;;;;;;;;;;2440763;57;21068;-83
2022/10/07 09:42:58;;;;;;;10.35;2.25;;;;;;;;;;2440952;57;21124;-83
2022/10/07 09:45:26;;;;;;;10.02;2.20;;;;;;;;;;2440900;57;21167;-82
2022/10/07 09:47:55;;;;;;;10.60;2.85;;;;;;;;;;2440832;57;21116;-82
2022/10/07 09:50:35;;;;;;;9.07;2.53;;;;;;;;;;2221097;61;21083;-83
2022/10/07 09:53:02;;;;;;;6.62;1.80;;;;;;;;;;2221095;61;21092;-84
2022/10/07 09:55:36;;;;;;;7.37;1.87;;;;;;;;;;2221124;61;21103;-84
2022/10/07 09:58:04;;;;;;;7.45;2.30;;;;;;;;;;2440995;56;21113;-83
2022/10/07 10:00:31;;;;;;;9.30;1.95;;;;;;;;;;2441009;57;21139;-84
2022/10/07 10:03:02;;;;;;;10.55;2.30;;;;;;;;;;2221216;61;21104;-84
2022/10/07 10:05:30;;;;;;;6.62;1.87;;;;;;;;;;2221119;61;21071;-83
2022/10/07 10:07:59;;;;;;;11.63;3.45;;;;;;;;;;2221367;61;21112;-83
2022/10/07 10:10:27;;;;;;;6.50;1.58;;;;;;;;;;2440484;57;21199;-84
2022/10/07 10:12:55;;;;;;;8.77;1.90;;;;;;;;;;2221011;61;21107;-83
2022/10/07 10:15:26;;;;;;;8.80;1.70;;;;;;;;;;2440718;57;21088;-84
2022/10/07 10:17:55;;;;;;;6.85;1.45;;;;;;;;;;2221347;61;21648;-83
2022/10/07 10:20:27;;;;;;;11.20;2.10;;;;;;;;;;2440936;57;21155;-83
2022/10/07 10:22:54;;;;;;;8.77;2.03;;;;;;;;;;2221140;61;21223;-83
2022/10/07 10:28:14;;;;;;;11.88;2.78;;;;;;;;;;2221128;61;21083;-83
2022/10/07 10:30:44;;;;;;;5.22;1.92;;;;;;;;;;2440745;57;21204;-83
2022/10/07 10:33:16;;;;;;;11.12;2.30;;;;;;;;;;2439998;57;21076;-82
2022/10/07 10:35:48;;;;;;;5.67;1.90;;;;;;;;;;2440560;57;21239;-84
2022/10/07 10:38:35;;;;;;;7.97;2.37;;;;;;;;;;2440950;57;21465;-82
2022/10/07 10:41:04;;;;;;;10.93;2.00;;;;;;;;;;2220952;61;21231;-83
2022/10/07 10:43:34;;;;;;;7.72;1.65;;;;;;;;;;2221188;61;21123;-83
2022/10/07 10:46:09;;;;;;;6.32;1.55;;;;;;;;;;2221234;61;21187;-84
2022/10/07 10:48:37;;;;;;;8.95;2.28;;;;;;;;;;2440966;57;21139;-83
2022/10/07 10:51:12;;;;;;;13.75;2.65;;;;;;;;;;2220762;61;21159;-84
2022/10/07 10:53:44;;;;;;;17.73;2.20;;;;;;;;;;2441000;57;21092;-83
2022/10/07 10:56:19;;;;;;;9.20;2.33;;;;;;;;;;2221144;61;21187;-83
2022/10/07 10:58:52;;;;;;;11.02;1.92;;;;;;;;;;2440651;56;21181;-83
2022/10/07 11:01:25;;;;;;;12.98;2.10;;;;;;;;;;2441036;57;21080;-83
2022/10/07 11:04:17;;;;;;;5.12;1.58;;;;;;;;;;2221225;61;21112;-83
2022/10/07 11:06:47;;;;;;;9.25;1.70;;;;;;;;;;2436404;57;21107;-83
2022/10/07 11:09:16;;;;;;;12.60;1.80;;;;;;;;;;2221111;61;21079;-83
2022/10/07 11:11:43;;;;;;;8.45;1.98;;;;;;;;;;2440647;57;21080;-83
2022/10/07 11:14:13;;;;;;;5.50;1.40;;;;;;;;;;2221107;61;21242;-85
2022/10/07 11:16:43;;;;;;;8.27;2.10;;;;;;;;;;2440872;57;21175;-84
2022/10/07 11:19:12;;;;;;;5.72;1.67;;;;;;;;;;2440674;57;21151;-84
2022/10/07 11:21:41;;;;;;;7.15;2.28;;;;;;;;;;2221198;61;21133;-85
2022/10/07 11:24:12;;;;;;;9.45;2.17;;;;;;;;;;2221188;61;21140;-84
2022/10/07 11:26:42;;;;;;;5.65;1.87;;;;;;;;;;2440867;57;21104;-84
2022/10/07 11:29:15;;;;;;;6.75;1.65;;;;;;;;;;2221184;61;21103;-84
2022/10/07 11:31:45;;;;;;;6.90;1.47;;;;;;;;;;2221196;61;21108;-83
2022/10/07 11:34:15;;;;;;;4.68;1.60;;;;;;;;;;2221316;61;21166;-83
2022/10/07 11:36:47;;;;;;;11.00;1.73;;;;;;;;;;2440958;57;21112;-83
2022/10/07 11:39:14;;;;;;;5.80;1.95;;;;;;;;;;2440841;57;21096;-83
2022/10/07 11:41:46;;;;;;;6.45;1.52;;;;;;;;;;2220903;61;21096;-84
2022/10/07 11:44:17;;;;;;;7.43;1.45;;;;;;;;;;2221081;61;21144;-84
2022/10/07 11:46:45;;;;;;;6.75;1.80;;;;;;;;;;2221121;61;21174;-84
2022/10/07 11:49:14;;;;;;;10.13;1.37;;;;;;;;;;2440727;57;21062;-84
2022/10/07 11:51:51;;;;;;;10.27;2.08;;;;;;;;;;2221136;61;21170;-84
2022/10/07 11:54:20;;;;;;;8.43;1.95;;;;;;;;;;2220956;61;21164;-83
2022/10/07 11:56:49;;;;;;;10.73;1.80;;;;;;;;;;2440982;57;21223;-84
2022/10/07 11:59:28;;;;;;;8.35;1.75;;;;;;;;;;2440529;56;21129;-84
2022/10/07 12:01:55;;;;;;;7.45;1.50;;;;;;;;;;2220881;61;21737;-84
2022/10/07 12:04:24;;;;;;;11.18;1.83;;;;;;;;;;2221114;61;21091;-84
2022/10/07 12:07:09;;;;;;;12.45;1.62;;;;;;;;;;2440720;57;21140;-84
2022/10/07 12:09:55;;;;;;;9.13;2.00;;;;;;;;;;2440927;57;21108;-84
2022/10/07 12:12:23;;;;;;;6.47;1.67;;;;;;;;;;2440748;57;21087;-85
2022/10/07 12:15:00;;;;;;;5.93;1.70;;;;;;;;;;2221091;61;21099;-85
2022/10/07 12:17:29;;;;;;;13.35;2.08;;;;;;;;;;2221155;61;21096;-85
2022/10/07 12:20:14;;;;;;;8.43;1.60;;;;;;;;;;2440922;57;21080;-84
2022/10/07 12:22:41;;;;;;;9.65;1.80;;;;;;;;;;2221123;61;21096;-83
2022/10/07 12:25:30;;;;;;;6.85;1.45;;;;;;;;;;2221312;61;21191;-83
2022/10/07 12:27:58;;;;;;;9.20;1.83;;;;;;;;;;2220992;61;21072;-84
2022/10/07 12:30:38;;;;;;;6.82;1.80;;;;;;;;;;2441015;57;21159;-83
2022/10/07 12:33:14;;;;;;;10.90;2.15;;;;;;;;;;2221085;61;21080;-84
2022/10/07 12:35:48;;;;;;;8.73;1.55;;;;;;;;;;2440998;57;21103;-84
2022/10/07 12:38:15;;;;;;;;;;;;;;;;;;2224438;61;21072;-83
2022/10/07 12:40:44;;;;;;;7.65;1.60;;;;;;;;;;2220857;61;20083;-81
2022/10/07 12:43:18;;;;;;;8.27;1.95;;;;;;;;;;2440977;57;21088;-84
2022/10/07 12:45:46;;;;;;;7.30;1.90;;;;;;;;;;2221290;61;21143;-83
2022/10/07 12:48:15;;;;;;;5.82;1.45;;;;;;;;;;2441267;57;21100;-84
2022/10/07 12:50:43;;;;;;;7.30;1.87;;;;;;;;;;2220686;61;21160;-82
2022/10/07 12:53:10;;;;;;;6.37;1.77;;;;;;;;;;2440898;57;21087;-84
2022/10/07 12:55:39;;;;;;;7.60;2.10;;;;;;;;;;2221128;61;21128;-84
2022/10/07 13:01:03;;;;;;;7.78;1.92;;;;;;;;;;2220742;61;21043;-83
2022/10/07 13:03:47;;;;;;;6.32;1.80;;;;;;;;;;2440842;57;21148;-83
2022/10/07 13:06:13;;;;;;;;;;;;;;;;;;2224430;61;21176;-83
2022/10/07 13:09:06;;;;;;;13.93;2.12;;;;;;;;;;2440627;57;20080;-83
2022/10/07 13:11:43;;;;;;;6.62;1.98;;;;;;;;;;2440483;57;21143;-83
2022/10/07 13:14:12;;;;;;;7.95;2.05;;;;;;;;;;2221143;61;21647;-83
2022/10/07 13:16:42;;;;;;;9.32;2.40;;;;;;;;;;2439896;57;21100;-83
2022/10/07 13:19:15;;;;;;;8.60;2.03;;;;;;;;;;2439435;57;21139;-83
2022/10/07 13:21:45;;;;;;;9.52;1.80;;;;;;;;;;2221302;61;21092;-84
2022/10/07 13:24:14;;;;;;;10.05;1.90;;;;;;;;;;2440761;57;21627;-84
2022/10/07 13:26:44;;;;;;;7.25;1.70;;;;;;;;;;2440724;57;21478;-83
2022/10/07 13:29:20;;;;;;;4.50;1.50;;;;;;;;;;2220820;61;21163;-84
2022/10/07 13:32:01;;;;;;;7.62;1.75;;;;;;;;;;2220776;61;21092;-83
2022/10/07 13:34:30;;;;;;;8.60;1.30;;;;;;;;;;2440411;57;21137;-83
2022/10/07 13:36:57;;;;;;;8.55;1.98;;;;;;;;;;2220991;61;21175;-83
2022/10/07 13:39:24;;;;;;;9.80;2.15;;;;;;;;;;2220967;61;21607;-84
2022/10/07 13:41:54;;;;;;;7.43;1.55;;;;;;;;;;2440620;57;21125;-83
2022/10/07 13:44:22;;;;;;;5.90;1.85;;;;;;;;;;2221072;61;21123;-83
2022/10/07 13:46:52;;;;;;;6.90;1.45;;;;;;;;;;2440861;57;21091;-84
2022/10/07 13:49:22;;;;;;;3.17;1.37;;;;;;;;;;2220999;61;21131;-83
2022/10/07 13:51:49;;;;;;;6.85;1.85;;;;;;;;;;2220941;61;21092;-84
2022/10/07 13:54:18;;;;;;;8.48;1.80;;;;;;;;;;2440659;57;21215;-84
2022/10/07 13:56:46;;;;;;;7.30;1.90;;;;;;;;;;2440364;57;21196;-83
2022/10/07 13:59:16;;;;;;;8.68;1.77;;;;;;;;;;2220663;61;21135;-83
2022/10/07 14:01:44;;;;;;;5.70;1.48;;;;;;;;;;2440066;57;21079;-83
2022/10/07 14:04:18;;;;;;;6.35;1.48;;;;;;;;;;2441144;57;21100;-84
2022/10/07 14:06:49;;;;;;;8.07;2.35;;;;;;;;;;2441323;57;21096;-84
2022/10/07 14:09:21;;;;;;;5.55;1.60;;;;;;;;;;2440522;57;21167;-84
2022/10/07 14:11:51;;;;;;;7.12;1.80;;;;;;;;;;2440339;57;21092;-85
2022/10/07 14:14:20;;;;;;;10.35;1.92;;;;;;;;;;2440847;57;21143;-84
2022/10/07 14:16:48;;;;;;;7.65;1.62;;;;;;;;;;2440862;57;21124;-84
2022/10/07 14:19:18;;;;;;;5.53;1.65;;;;;;;;;;2221082;61;21091;-83
2022/10/07 14:21:45;;;;;;;6.47;1.77;;;;;;;;;;2221060;61;21143;-84
2022/10/07 14:24:17;;;;;;;6.70;2.50;;;;;;;;;;2221221;61;21103;-84
2022/10/07 14:26:44;;;;;;;8.55;2.30;;;;;;;;;;2220901;61;21183;-84
2022/10/07 14:29:34;;;;;;;5.40;1.87;;;;;;;;;;2221024;61;21116;-84
2022/10/07 14:37:38;;;;;;;3.55;1.37;;;;;;;;;;2221175;61;21164;-84
2022/10/07 14:40:15;;;;;;;7.68;2.47;;;;;;;;;;2440985;57;21087;-84
2022/10/07 14:42:42;;;;;;;6.10;1.90;;;;;;;;;;2220712;61;21088;-84
2022/10/07 14:45:14;;;;;;;8.27;1.58;;;;;;;;;;2440760;57;21079;-84
2022/10/07 14:47:43;;;;;;;6.07;1.42;;;;;;;;;;2440674;57;21080;-84
2022/10/07 14:50:11;;;;;;;6.60;1.58;;;;;;;;;;2220936;61;21092;-84
2022/10/07 14:52:39;;;;;;;9.73;1.98;;;;;;;;;;2221084;61;21904;-84
2022/10/07 14:55:10;;;;;;;12.23;2.58;;;;;;;;;;2221088;61;21178;-84
2022/10/07 14:57:37;;;;;;;6.00;2.05;;;;;;;;;;2221203;61;21142;-84
2022/10/07 15:00:11;;;;;;;5.62;1.77;;;;;;;;;;2220870;61;21095;-85
2022/10/07 15:02:38;;;;;;;8.23;1.80;;;;;;;;;;2220911;61;21083;-84
2022/10/07 15:05:06;;;;;;;7.40;1.40;;;;;;;;;;2440738;57;21088;-85
2022/10/07 15:07:33;;;;;;;6.15;1.95;;;;;;;;;;2221263;61;21104;-84
2022/10/07 15:10:00;;;;;;;11.25;2.03;;;;;;;;;;2221250;61;21151;-84
2022/10/07 15:12:27;;;;;;;6.72;1.60;;;;;;;;;;2221042;61;21075;-83
2022/10/07 15:14:54;;;;;;;7.70;2.12;;;;;;;;;;2441128;57;21152;-83